Decoded Metar for KGJT (GRAND JUNCTION in CO, USA) (IATA:GJT) | Meteo·Mobile Aviation Weather
aviador You're here:

KGJT Decoded Metar

GRAND JUNCTION in CO, USA
Report Time2019-08-24 12:53:00
UTC Time2019-08-24 13:34:10
Flight Rules vfr VFR
WindCalm
Visibility9999 m
Phenomena:N/A
Clouds:Scattered 120 Hf
Expected CloudBase > 7,200 ft AGL from Temp-Dew spread
CeilingNone
Temp16°C (ISA +11)
Dew Point-2°C (29% RH)
AAT13.7°C
QNH1018 hPa
Density Alt5,984 ft
Elevation4,839 ft
Report Wrong Elevation
Raw Report
KGJT 241253Z 00000KT 10SM SCT120 16/M02 A3005 RMK AO2 SLP103
T01611017=

Extra information for KGJT:More info

Metar Taf Metar & Taf Last 4 Metars F.Rules Stats Wind Profile Meteogram Temp Stats Airport Information Weather charts Add Link Nearby VenuesMetar ALERT Operation Metar Decoded Social comments

AIRNAV info for KGJT